createdAt,value
2022-10-15T00:00:42.024Z,28.65
2022-10-15T00:03:19.014Z,27.30
2022-10-15T00:05:56.053Z,28.25
2022-10-15T00:08:33.190Z,28.48
2022-10-15T00:11:16.406Z,29.48
2022-10-15T00:13:54.549Z,32.63
2022-10-15T00:16:32.875Z,29.45
2022-10-15T00:19:10.760Z,27.33
2022-10-15T00:21:47.972Z,29.10
2022-10-15T00:24:26.430Z,29.20
2022-10-15T00:27:03.570Z,26.98
2022-10-15T00:29:42.118Z,32.05
2022-10-15T00:32:19.325Z,29.37
2022-10-15T00:34:57.875Z,25.25
2022-10-15T00:37:36.409Z,28.25
2022-10-15T00:40:15.296Z,31.20
2022-10-15T00:42:53.634Z,30.65
2022-10-15T00:45:30.670Z,37.15
2022-10-15T00:48:07.698Z,31.17
2022-10-15T00:50:44.747Z,26.17
2022-10-15T00:53:23.394Z,30.25
2022-10-15T00:56:00.787Z,26.15
2022-10-15T00:58:39.008Z,28.25
2022-10-15T01:01:16.077Z,34.10
2022-10-15T01:03:54.744Z,30.02
2022-10-15T01:06:33.274Z,28.08
2022-10-15T01:09:12.052Z,31.10
2022-10-15T01:11:51.316Z,32.15
2022-10-15T01:15:00.489Z,29.65
2022-10-15T01:17:50.440Z,28.30
2022-10-15T01:20:31.213Z,25.17
2022-10-15T01:23:49.282Z,27.37
2022-10-15T01:26:36.069Z,26.62
2022-10-15T01:29:45.512Z,26.02
2022-10-15T01:32:25.480Z,25.62
2022-10-15T01:35:03.270Z,24.65
2022-10-15T01:37:52.867Z,24.73
2022-10-15T01:40:51.343Z,27.25
2022-10-15T01:43:31.225Z,24.70
2022-10-15T01:46:07.453Z,23.77
2022-10-15T01:48:35.142Z,25.83
2022-10-15T01:51:03.983Z,28.20
2022-10-15T01:53:34.183Z,28.70
2022-10-15T01:56:04.568Z,24.75
2022-10-15T01:58:32.509Z,26.85
2022-10-15T02:00:59.894Z,25.90
2022-10-15T02:03:27.585Z,28.02
2022-10-15T02:05:59.611Z,26.83
2022-10-15T02:08:56.549Z,25.80
2022-10-15T02:11:24.200Z,29.25
2022-10-15T02:14:04.131Z,27.70
2022-10-15T02:16:35.688Z,27.10
2022-10-15T02:19:18.798Z,29.67
2022-10-15T02:22:18.816Z,23.12
2022-10-15T02:24:54.556Z,36.90
2022-10-15T02:27:23.745Z,35.72
2022-10-15T02:29:52.747Z,29.73
2022-10-15T02:32:21.268Z,27.13
2022-10-15T02:34:49.502Z,26.62
2022-10-15T02:37:19.109Z,30.05
2022-10-15T02:39:46.542Z,28.50
2022-10-15T02:42:18.069Z,30.52
2022-10-15T02:44:45.414Z,27.87
2022-10-15T02:47:12.878Z,26.23
2022-10-15T02:49:41.200Z,26.50
2022-10-15T02:52:08.777Z,26.83
2022-10-15T02:54:36.273Z,30.05
2022-10-15T02:57:03.905Z,26.48
2022-10-15T02:59:31.292Z,26.77
2022-10-15T03:01:59.157Z,26.40
2022-10-15T03:04:27.128Z,29.05
2022-10-15T03:06:55.112Z,32.95
2022-10-15T03:09:23.127Z,28.83
2022-10-15T03:11:50.754Z,26.80
2022-10-15T03:14:18.138Z,29.15
2022-10-15T03:16:45.636Z,27.17
2022-10-15T03:19:13.674Z,27.90
2022-10-15T03:21:41.099Z,26.10
2022-10-15T03:24:09.341Z,29.63
2022-10-15T03:26:37.132Z,27.80
2022-10-15T03:29:04.803Z,28.35
2022-10-15T03:31:32.652Z,26.62
2022-10-15T03:34:01.185Z,30.62
2022-10-15T03:36:28.679Z,30.50
2022-10-15T03:38:56.642Z,31.02
2022-10-15T03:41:24.258Z,33.00
2022-10-15T03:43:51.920Z,31.83
2022-10-15T03:46:19.311Z,34.22
2022-10-15T03:48:50.793Z,27.58
2022-10-15T03:51:22.077Z,27.30
2022-10-15T03:53:53.376Z,31.75
2022-10-15T03:56:20.793Z,29.95
2022-10-15T03:58:48.280Z,28.65
2022-10-15T04:01:17.061Z,26.40
2022-10-15T04:03:44.874Z,28.62
2022-10-15T04:06:13.084Z,30.33
2022-10-15T04:08:40.505Z,31.17
2022-10-15T04:11:12.724Z,30.08
2022-10-15T04:13:40.060Z,29.35
2022-10-15T04:16:07.504Z,31.70
2022-10-15T04:18:35.129Z,30.55
2022-10-15T04:21:02.483Z,27.20
2022-10-15T04:23:31.597Z,29.87
2022-10-15T04:26:04.041Z,28.90
2022-10-15T04:28:31.375Z,27.77
2022-10-15T04:30:59.264Z,25.85
2022-10-15T04:33:37.662Z,30.50
2022-10-15T04:38:59.681Z,27.85
2022-10-15T04:41:38.351Z,29.25
2022-10-15T04:44:17.016Z,30.37
2022-10-15T04:46:55.553Z,28.50
2022-10-15T04:49:34.286Z,28.83
2022-10-15T04:52:13.104Z,38.10
2022-10-15T04:59:11.451Z,31.02
2022-10-15T05:01:54.774Z,33.72
2022-10-15T05:04:33.340Z,30.50
2022-10-15T05:07:11.962Z,30.08
2022-10-15T05:09:50.643Z,35.90
2022-10-15T05:12:29.262Z,32.25
2022-10-15T05:15:08.212Z,31.92
2022-10-15T05:17:46.460Z,33.15
2022-10-15T05:20:23.550Z,31.75
2022-10-15T05:23:04.323Z,30.77
2022-10-15T05:25:42.355Z,34.17
2022-10-15T05:28:20.989Z,33.38
2022-10-15T05:31:13.720Z,34.45
2022-10-15T05:33:49.158Z,32.22
2022-10-15T05:36:19.372Z,35.47
2022-10-15T05:38:51.226Z,32.75
2022-10-15T05:41:18.909Z,32.80
2022-10-15T05:43:47.506Z,33.42
2022-10-15T05:46:22.402Z,32.45
2022-10-15T05:48:53.634Z,35.20
2022-10-15T05:51:21.468Z,29.37
2022-10-15T05:53:52.890Z,32.55
2022-10-15T05:56:20.229Z,29.95
2022-10-15T05:58:47.883Z,39.13
2022-10-15T06:01:15.330Z,40.47
2022-10-15T06:03:48.873Z,37.97
2022-10-15T06:06:23.602Z,31.27
2022-10-15T06:08:51.425Z,30.55
2022-10-15T06:11:18.837Z,34.22
2022-10-15T06:13:46.434Z,36.95
2022-10-15T06:16:16.631Z,44.38
2022-10-15T06:18:46.813Z,34.40
2022-10-15T06:21:14.424Z,36.92
2022-10-15T06:23:41.767Z,43.60
2022-10-15T06:26:09.708Z,42.97
2022-10-15T06:28:37.476Z,44.53
2022-10-15T06:31:05.565Z,48.40
2022-10-15T06:33:32.950Z,46.05
2022-10-15T06:36:10.168Z,85.30
2022-10-15T06:38:37.778Z,201.52
2022-10-15T06:41:06.386Z,164.88
2022-10-15T06:43:35.249Z,74.32
2022-10-15T06:46:04.090Z,80.70
2022-10-15T06:48:32.685Z,62.00
2022-10-15T06:51:00.801Z,59.88
2022-10-15T06:53:28.536Z,56.47
2022-10-15T06:55:59.897Z,51.40
2022-10-15T06:58:27.255Z,34.28
2022-10-15T07:01:00.127Z,37.67
2022-10-15T07:03:28.011Z,36.08
2022-10-15T07:05:55.647Z,36.22
2022-10-15T07:08:23.112Z,33.88
2022-10-15T07:10:50.709Z,32.65
2022-10-15T07:13:18.014Z,29.87
2022-10-15T07:15:46.282Z,31.65
2022-10-15T07:18:13.870Z,27.83
2022-10-15T07:20:41.356Z,30.88
2022-10-15T07:23:08.666Z,34.42
2022-10-15T07:25:36.290Z,43.08
2022-10-15T07:28:04.082Z,28.65
2022-10-15T07:30:31.665Z,31.23
2022-10-15T07:32:59.537Z,33.40
2022-10-15T07:35:27.059Z,30.83
2022-10-15T07:37:55.125Z,27.80
2022-10-15T07:40:22.902Z,34.63
2022-10-15T07:42:56.879Z,27.95
2022-10-15T07:45:26.254Z,33.28
2022-10-15T07:47:53.632Z,29.17
2022-10-15T07:50:21.457Z,26.60
2022-10-15T07:52:49.039Z,27.70
2022-10-15T07:55:16.340Z,31.55
2022-10-15T07:57:43.752Z,27.90
2022-10-15T08:00:12.051Z,32.50
2022-10-15T08:02:40.300Z,29.75
2022-10-15T08:05:08.213Z,28.02
2022-10-15T08:07:35.582Z,27.98
2022-10-15T08:10:09.702Z,25.90
2022-10-15T08:12:37.307Z,28.30
2022-10-15T08:15:05.700Z,26.70
2022-10-15T08:17:33.011Z,26.67
2022-10-15T08:20:00.586Z,27.65
2022-10-15T08:22:28.026Z,26.52
2022-10-15T08:24:56.443Z,28.77
2022-10-15T08:27:24.048Z,28.27
2022-10-15T08:29:57.580Z,29.77
2022-10-15T08:32:25.528Z,28.23
2022-10-15T08:34:53.172Z,27.25
2022-10-15T08:37:20.506Z,24.95
2022-10-15T08:39:48.451Z,26.35
2022-10-15T08:42:21.649Z,23.95
2022-10-15T08:44:58.419Z,23.42
2022-10-15T08:47:40.458Z,26.30
2022-10-15T08:50:16.993Z,24.75
2022-10-15T08:52:48.574Z,23.52
2022-10-15T08:55:18.077Z,23.70
2022-10-15T08:58:13.893Z,24.90
2022-10-15T09:00:45.496Z,20.48
2022-10-15T09:03:36.833Z,21.23
2022-10-15T09:06:13.993Z,22.15
2022-10-15T09:09:07.075Z,29.15
2022-10-15T09:11:56.450Z,23.90
2022-10-15T09:14:27.300Z,22.08
2022-10-15T09:16:55.000Z,26.00
2022-10-15T09:19:23.489Z,20.23
2022-10-15T09:21:51.756Z,18.67
2022-10-15T09:24:23.871Z,22.48
2022-10-15T09:27:07.316Z,19.05
2022-10-15T09:30:03.648Z,17.80
2022-10-15T09:32:46.888Z,17.50
2022-10-15T09:35:19.460Z,21.58
2022-10-15T09:38:24.339Z,20.15
2022-10-15T09:41:03.795Z,19.80
2022-10-15T09:43:36.684Z,18.45
2022-10-15T09:46:04.487Z,17.67
2022-10-15T09:48:44.176Z,18.15
2022-10-15T09:51:34.828Z,16.62
2022-10-15T09:54:12.879Z,21.48
2022-10-15T09:56:48.666Z,22.87
2022-10-15T09:59:17.718Z,18.37
2022-10-15T10:02:04.670Z,18.08
2022-10-15T10:04:33.608Z,18.73
2022-10-15T10:07:02.824Z,15.43
2022-10-15T10:09:33.672Z,14.77
2022-10-15T10:12:03.912Z,16.52
2022-10-15T10:14:42.873Z,16.83
2022-10-15T10:17:21.401Z,14.98
2022-10-15T10:20:07.608Z,15.38
2022-10-15T10:22:54.769Z,14.80
2022-10-15T10:25:30.983Z,16.00
2022-10-15T10:28:13.850Z,13.27
2022-10-15T10:31:03.779Z,14.48
2022-10-15T10:33:35.482Z,12.88
2022-10-15T10:36:02.920Z,11.95
2022-10-15T10:38:33.140Z,12.30
2022-10-15T10:41:08.521Z,12.65
2022-10-15T10:43:39.779Z,13.50
2022-10-15T10:46:14.546Z,16.12
2022-10-15T10:48:51.558Z,12.90
2022-10-15T10:51:21.760Z,10.63
2022-10-15T10:53:55.494Z,14.20
2022-10-15T10:56:35.969Z,10.85
2022-10-15T10:59:22.312Z,12.95
2022-10-15T11:01:50.332Z,12.68
2022-10-15T11:04:25.680Z,13.48
2022-10-15T11:07:00.740Z,12.63
2022-10-15T11:09:40.398Z,13.23
2022-10-15T11:12:25.667Z,11.23
2022-10-15T11:15:04.529Z,15.18
2022-10-15T11:18:06.136Z,10.93
2022-10-15T11:21:21.337Z,11.98
2022-10-15T11:24:09.346Z,17.27
2022-10-15T11:27:09.757Z,13.13
2022-10-15T11:29:42.197Z,12.32
2022-10-15T11:32:25.293Z,12.43
2022-10-15T11:35:40.959Z,14.80
2022-10-15T11:38:56.193Z,12.18
2022-10-15T11:41:29.557Z,12.40
2022-10-15T11:44:06.932Z,12.18
2022-10-15T11:46:44.074Z,16.33
2022-10-15T11:49:39.070Z,12.77
2022-10-15T11:52:35.626Z,13.38
2022-10-15T11:55:17.295Z,14.55
2022-10-15T11:57:44.679Z,11.73
2022-10-15T12:00:12.056Z,12.75
2022-10-15T12:02:39.536Z,10.63
2022-10-15T12:05:38.382Z,10.73
2022-10-15T12:08:05.924Z,11.05
2022-10-15T12:10:46.415Z,11.45
2022-10-15T12:13:33.988Z,10.88
2022-10-15T12:16:16.429Z,11.85
2022-10-15T12:18:54.328Z,11.65
2022-10-15T12:22:06.856Z,11.48
2022-10-15T12:24:51.682Z,13.50
2022-10-15T12:27:19.058Z,11.30
2022-10-15T12:29:50.920Z,13.52
2022-10-15T12:32:28.338Z,12.65
2022-10-15T12:35:02.590Z,15.15
2022-10-15T12:37:32.705Z,13.52
2022-10-15T12:40:05.895Z,12.57
2022-10-15T12:42:37.254Z,9.95
2022-10-15T12:45:06.668Z,13.10
2022-10-15T12:47:54.201Z,10.35
2022-10-15T12:50:28.516Z,15.27
2022-10-15T12:52:58.911Z,13.20
2022-10-15T12:55:38.744Z,11.75
2022-10-15T12:58:16.737Z,11.35
2022-10-15T13:00:44.236Z,12.52
2022-10-15T13:03:22.441Z,10.98
2022-10-15T13:05:53.110Z,12.50
2022-10-15T13:08:31.814Z,10.63
2022-10-15T13:10:59.657Z,11.23
2022-10-15T13:13:29.493Z,12.13
2022-10-15T13:16:09.914Z,14.20
2022-10-15T13:18:37.492Z,10.57
2022-10-15T13:21:05.994Z,12.73
2022-10-15T13:23:35.389Z,13.68
2022-10-15T13:26:23.725Z,14.60
2022-10-15T13:28:52.674Z,15.63
2022-10-15T13:31:30.348Z,11.27
2022-10-15T13:34:01.502Z,10.55
2022-10-15T13:36:33.259Z,14.73
2022-10-15T13:39:06.631Z,10.32
2022-10-15T13:41:38.176Z,14.65
2022-10-15T13:44:05.759Z,12.82
2022-10-15T13:46:36.531Z,14.30
2022-10-15T13:49:12.532Z,11.43
2022-10-15T13:51:41.953Z,10.73
2022-10-15T13:54:12.174Z,13.90
2022-10-15T13:56:46.381Z,9.70
2022-10-15T13:59:17.186Z,14.13
2022-10-15T14:01:48.888Z,8.85
2022-10-15T14:04:22.160Z,10.10
2022-10-15T14:07:03.790Z,11.43
2022-10-15T14:09:33.135Z,10.45
2022-10-15T14:12:03.122Z,9.27
2022-10-15T14:14:32.055Z,10.23
2022-10-15T14:17:01.348Z,13.15
2022-10-15T14:19:30.084Z,10.70
2022-10-15T14:21:57.898Z,10.98
2022-10-15T14:24:36.144Z,13.70
2022-10-15T14:27:17.654Z,10.80
2022-10-15T14:29:46.065Z,10.07
2022-10-15T14:32:43.034Z,12.45
2022-10-15T14:35:35.969Z,13.38
2022-10-15T14:38:16.375Z,12.32
2022-10-15T14:41:28.634Z,17.73
2022-10-15T14:44:20.401Z,13.88
2022-10-15T14:46:49.610Z,13.50
2022-10-15T14:49:21.984Z,13.18
2022-10-15T14:51:54.439Z,11.30
2022-10-15T14:54:24.559Z,16.45
2022-10-15T14:56:52.169Z,12.23
2022-10-15T14:59:20.006Z,13.05
2022-10-15T15:01:52.660Z,14.32
2022-10-15T15:04:38.138Z,16.30
2022-10-15T15:07:20.078Z,18.20
2022-10-15T15:09:48.254Z,16.85
2022-10-15T15:12:18.470Z,20.00
2022-10-15T15:14:45.817Z,17.52
2022-10-15T15:17:23.989Z,14.05
2022-10-15T15:19:52.155Z,16.80
2022-10-15T15:22:28.243Z,17.00
2022-10-15T15:24:56.702Z,14.55
2022-10-15T15:27:28.309Z,21.33
2022-10-15T15:29:55.718Z,16.25
2022-10-15T15:32:23.532Z,23.62
2022-10-15T15:34:52.326Z,19.37
2022-10-15T15:37:21.409Z,17.52
2022-10-15T15:39:49.106Z,14.27
2022-10-15T15:42:21.646Z,18.02
2022-10-15T15:44:49.188Z,17.48
2022-10-15T15:47:17.000Z,18.45
2022-10-15T15:49:44.369Z,16.62
2022-10-15T15:52:13.942Z,19.85
2022-10-15T15:54:41.617Z,17.25
2022-10-15T15:57:09.150Z,23.98
2022-10-15T15:59:36.514Z,17.08
2022-10-15T16:02:04.184Z,17.65
2022-10-15T16:04:31.830Z,16.60
2022-10-15T16:06:59.145Z,12.80
2022-10-15T16:09:26.684Z,14.52
2022-10-15T16:11:54.308Z,15.20
2022-10-15T16:14:21.676Z,15.45
2022-10-15T16:16:49.025Z,16.80
2022-10-15T16:19:16.653Z,18.33
2022-10-15T16:21:43.949Z,18.92
2022-10-15T16:24:11.240Z,14.65
2022-10-15T16:26:38.855Z,15.30
2022-10-15T16:29:06.178Z,13.50
2022-10-15T16:31:36.588Z,16.37
2022-10-15T16:34:04.665Z,21.48
2022-10-15T16:36:32.127Z,18.98
2022-10-15T16:38:59.482Z,21.00
2022-10-15T16:41:27.124Z,20.58
2022-10-15T16:43:54.462Z,21.27
2022-10-15T16:46:21.804Z,24.30
2022-10-15T16:48:53.850Z,28.50
2022-10-15T16:51:21.375Z,25.40
2022-10-15T16:53:50.260Z,21.48
2022-10-15T16:56:25.072Z,31.62
2022-10-15T16:58:52.776Z,19.87
2022-10-15T17:01:22.700Z,23.05
2022-10-15T17:03:50.072Z,20.48
2022-10-15T17:06:21.041Z,18.50
2022-10-15T17:08:52.616Z,19.62
2022-10-15T17:11:21.758Z,18.73
2022-10-15T17:13:50.452Z,16.70
2022-10-15T17:16:22.685Z,20.08
2022-10-15T17:21:25.225Z,19.40
2022-10-15T17:23:57.538Z,20.02
2022-10-15T17:26:27.037Z,18.02
2022-10-15T17:28:54.701Z,18.98
2022-10-15T17:31:23.442Z,18.25
2022-10-15T17:33:57.784Z,18.62
2022-10-15T17:36:25.541Z,19.58
2022-10-15T17:38:55.203Z,19.65
2022-10-15T17:41:23.233Z,24.25
2022-10-15T17:43:51.008Z,17.60
2022-10-15T17:46:20.136Z,19.15
2022-10-15T17:48:47.685Z,16.65
2022-10-15T17:51:16.995Z,17.02
2022-10-15T17:53:44.337Z,16.33
2022-10-15T17:56:21.472Z,15.27
2022-10-15T17:58:50.117Z,17.58
2022-10-15T18:01:28.070Z,16.42
2022-10-15T18:04:01.272Z,19.58
2022-10-15T18:06:28.631Z,16.33
2022-10-15T18:08:56.018Z,16.02
2022-10-15T18:11:26.517Z,15.68
2022-10-15T18:13:53.886Z,17.87
2022-10-15T18:16:21.486Z,19.30
2022-10-15T18:18:49.177Z,16.23
2022-10-15T18:21:17.309Z,16.45
2022-10-15T18:23:44.648Z,13.70
2022-10-15T18:26:18.705Z,15.70
2022-10-15T18:28:48.021Z,17.33
2022-10-15T18:31:15.729Z,19.25
2022-10-15T18:33:43.795Z,17.00
2022-10-15T18:36:13.748Z,17.67
2022-10-15T18:38:43.497Z,20.67
2022-10-15T18:41:17.030Z,15.70
2022-10-15T18:43:44.796Z,20.75
2022-10-15T18:46:12.145Z,20.05
2022-10-15T18:48:39.520Z,15.32
2022-10-15T18:51:10.005Z,17.42
2022-10-15T18:53:38.069Z,13.77
2022-10-15T18:56:06.280Z,19.62
2022-10-15T18:58:33.972Z,16.40
2022-10-15T19:01:27.391Z,18.23
2022-10-15T19:03:55.810Z,18.35
2022-10-15T19:06:24.960Z,13.88
2022-10-15T19:08:53.709Z,19.42
2022-10-15T19:11:21.332Z,17.45
2022-10-15T19:13:49.330Z,14.52
2022-10-15T19:16:16.690Z,15.30
2022-10-15T19:18:45.038Z,18.40
2022-10-15T19:21:12.343Z,17.17
2022-10-15T19:23:39.740Z,18.58
2022-10-15T19:26:10.876Z,16.62
2022-10-15T19:28:38.314Z,18.55
2022-10-15T19:31:06.903Z,14.18
2022-10-15T19:33:36.593Z,18.35
2022-10-15T19:36:04.163Z,17.30
2022-10-15T19:38:31.596Z,19.70
2022-10-15T19:41:01.962Z,15.50
2022-10-15T19:43:29.280Z,19.40
2022-10-15T19:45:56.637Z,13.32
2022-10-15T19:48:24.802Z,14.82
2022-10-15T19:50:52.124Z,16.95
2022-10-15T19:53:19.505Z,15.70
2022-10-15T19:55:55.529Z,15.20
2022-10-15T19:58:22.899Z,18.55
2022-10-15T20:00:51.221Z,14.65
2022-10-15T20:03:19.096Z,21.40
2022-10-15T20:05:46.479Z,15.98
2022-10-15T20:08:13.907Z,17.17
2022-10-15T20:10:45.004Z,17.08
2022-10-15T20:13:13.249Z,20.05
2022-10-15T20:15:42.238Z,17.77
2022-10-15T20:18:09.647Z,16.95
2022-10-15T20:20:37.830Z,17.50
2022-10-15T20:23:05.439Z,13.88
2022-10-15T20:25:32.755Z,15.10
2022-10-15T20:28:00.093Z,17.15
2022-10-15T20:30:27.670Z,14.60
2022-10-15T20:32:54.996Z,15.00
2022-10-15T20:35:22.402Z,15.30
2022-10-15T20:37:50.019Z,17.55
2022-10-15T20:40:17.345Z,14.68
2022-10-15T20:42:44.652Z,20.42
2022-10-15T20:45:16.193Z,15.50
2022-10-15T20:47:48.674Z,18.58
2022-10-15T20:50:18.567Z,17.17
2022-10-15T20:52:45.862Z,16.10
2022-10-15T20:55:13.286Z,11.77
2022-10-15T20:57:41.006Z,16.33
2022-10-15T21:00:09.078Z,15.90
2022-10-15T21:02:36.483Z,14.45
2022-10-15T21:05:04.177Z,14.45
2022-10-15T21:07:31.506Z,12.70
2022-10-15T21:09:58.898Z,13.88
2022-10-15T21:12:27.419Z,13.38
2022-10-15T21:14:54.957Z,12.18
2022-10-15T21:17:22.525Z,11.32
2022-10-15T21:19:52.716Z,16.42
2022-10-15T21:22:20.611Z,11.95
2022-10-15T21:24:47.915Z,14.80
2022-10-15T21:27:15.538Z,14.27
2022-10-15T21:29:44.960Z,14.30
2022-10-15T21:32:12.365Z,15.68
2022-10-15T21:37:12.434Z,15.70
2022-10-15T21:39:40.015Z,13.93
2022-10-15T21:42:07.343Z,14.27
2022-10-15T21:44:34.648Z,14.30
2022-10-15T21:47:02.252Z,13.77
2022-10-15T21:49:29.643Z,12.18
2022-10-15T21:51:56.968Z,14.63
2022-10-15T21:54:24.563Z,13.00
2022-10-15T21:56:51.885Z,12.13
2022-10-15T21:59:19.339Z,15.88
2022-10-15T22:01:46.989Z,13.65
2022-10-15T22:04:14.644Z,14.48
2022-10-15T22:06:42.196Z,14.40
2022-10-15T22:09:10.131Z,15.18
2022-10-15T22:11:39.431Z,13.30
2022-10-15T22:14:08.341Z,20.15
2022-10-15T22:16:36.473Z,14.05
2022-10-15T22:19:04.504Z,18.00
2022-10-15T22:21:33.368Z,13.65
2022-10-15T22:24:02.258Z,16.62
2022-10-15T22:26:31.980Z,12.25
2022-10-15T22:29:00.487Z,12.98
2022-10-15T22:31:27.957Z,11.57
2022-10-15T22:33:55.701Z,15.98
2022-10-15T22:36:24.175Z,13.30
2022-10-15T22:41:36.622Z,12.27
2022-10-15T22:44:04.027Z,15.98
2022-10-15T22:46:35.905Z,12.02
2022-10-15T22:49:03.516Z,12.18
2022-10-15T22:51:30.891Z,18.58
2022-10-15T22:53:58.583Z,14.50
2022-10-15T22:56:26.123Z,17.20
2022-10-15T22:58:54.558Z,11.35
2022-10-15T23:01:24.055Z,17.08
2022-10-15T23:03:52.890Z,14.27
2022-10-15T23:06:20.259Z,11.57
2022-10-15T23:08:48.148Z,11.15
2022-10-15T23:11:20.371Z,13.05
2022-10-15T23:13:48.467Z,13.13
2022-10-15T23:16:20.503Z,18.27
2022-10-15T23:18:51.362Z,13.25
2022-10-15T23:21:20.434Z,13.35
2022-10-15T23:23:48.094Z,13.73
2022-10-15T23:26:16.109Z,12.70
2022-10-15T23:28:44.160Z,14.95
2022-10-15T23:31:19.161Z,16.25
2022-10-15T23:33:46.556Z,16.20
2022-10-15T23:36:14.200Z,11.80
2022-10-15T23:38:41.600Z,10.48
2022-10-15T23:41:09.673Z,14.85
2022-10-15T23:43:37.350Z,13.75
2022-10-15T23:46:04.763Z,12.45
2022-10-15T23:48:32.088Z,16.02
2022-10-15T23:51:03.323Z,10.73
2022-10-15T23:53:32.644Z,14.05
2022-10-15T23:56:02.573Z,9.98
2022-10-15T23:58:32.049Z,19.23
